Time;durP1;ratioP1;P1;durP2;ratioP2;P2;SDS_P1;SDS_P2;PMS_P1;PMS_P2;Temp;Humidity;BMP_temperature;BMP_pressure;BME280_temperature;BME280_humidity;BME280_pressure;Samples;Min_cycle;Max_cycle;Signal;HPM_P1;HPM_P2
2023/07/24 00:00:09;;;;;;;2.70;2.60;;;20.40;99.90;;;20.81;91.18;100292.50;5052245;28;20056;-81
2023/07/24 00:02:37;;;;;;;3.00;2.90;;;20.40;99.90;;;20.78;91.11;100292.66;5052481;28;20044;-80
2023/07/24 00:05:06;;;;;;;2.65;2.55;;;20.40;99.90;;;20.82;91.01;100280.78;5050746;28;20041;-81
2023/07/24 00:07:36;;;;;;;3.00;2.90;;;20.40;99.90;;;20.75;91.01;100279.41;5052155;28;20486;-81
2023/07/24 00:10:05;;;;;;;3.50;2.80;;;20.40;99.90;;;20.80;90.87;100275.50;5047201;28;20547;-80
2023/07/24 00:12:34;;;;;;;2.97;2.88;;;20.40;99.90;;;20.89;90.63;100274.97;5049484;28;20044;-81
2023/07/24 00:15:03;;;;;;;2.80;2.70;;;20.50;99.90;;;20.84;90.54;100269.00;5056323;28;20037;-81
2023/07/24 00:17:31;;;;;;;3.20;3.05;;;20.50;99.90;;;20.88;90.16;100286.69;5055899;28;20649;-81
2023/07/24 00:20:00;;;;;;;2.70;2.60;;;20.50;99.90;;;20.88;90.17;100288.50;5055819;28;20045;-80
2023/07/24 00:22:28;;;;;;;2.80;2.70;;;20.50;99.90;;;20.91;90.30;100280.25;5056148;28;20132;-81
2023/07/24 00:24:58;;;;;;;3.20;3.10;;;20.50;99.90;;;20.93;90.26;100273.84;5056071;28;20053;-81
2023/07/24 00:27:26;;;;;;;2.77;2.60;;;20.50;99.90;;;20.93;90.17;100263.09;5056350;28;20053;-81
2023/07/24 00:29:54;;;;;;;5.13;3.08;;;20.60;99.90;;;20.96;89.92;100270.13;5055983;28;20291;-81
2023/07/24 00:32:23;;;;;;;3.72;3.53;;;20.60;99.90;;;20.97;89.83;100263.78;5055616;28;20045;-81
2023/07/24 00:34:51;;;;;;;2.90;2.80;;;20.60;99.90;;;20.88;89.69;100257.13;5051787;28;20037;-80
2023/07/24 00:37:20;;;;;;;2.88;2.78;;;20.50;99.90;;;20.89;89.60;100257.97;5054184;28;20123;-80
2023/07/24 00:39:48;;;;;;;2.30;2.20;;;20.50;99.90;;;20.79;89.24;100236.09;5055504;28;20067;-80
2023/07/24 00:42:18;;;;;;;2.70;2.60;;;20.60;99.90;;;20.95;89.24;100254.94;5055478;28;20405;-80
2023/07/24 00:44:49;;;;;;;2.55;2.45;;;20.60;99.90;;;21.01;89.04;100252.81;5069986;28;20049;-80
2023/07/24 00:47:18;;;;;;;2.88;2.78;;;20.60;99.90;;;21.04;88.91;100258.00;5070763;28;20064;-80
2023/07/24 00:49:48;;;;;;;2.58;2.47;;;20.70;99.90;;;21.01;88.74;100246.56;5055642;28;20044;-81
2023/07/24 00:52:16;;;;;;;2.80;2.70;;;20.60;99.90;;;20.91;88.35;100239.91;5055604;28;20041;-80
2023/07/24 00:54:47;;;;;;;2.35;2.25;;;20.60;99.90;;;20.94;87.98;100234.38;5050325;28;20060;-77
2023/07/24 00:57:17;;;;;;;2.95;2.85;;;20.50;99.90;;;20.86;87.70;100231.25;5055298;28;20079;-80
2023/07/24 00:59:46;;;;;;;2.92;2.83;;;20.50;99.90;;;20.34;87.53;100152.72;5055485;28;20047;-80
2023/07/24 01:02:15;;;;;;;3.83;3.53;;;20.50;99.90;;;20.31;87.58;100158.22;5055079;28;20052;-80
2023/07/24 01:04:43;;;;;;;2.38;2.28;;;20.50;99.90;;;20.77;87.32;100248.75;5055319;28;20128;-81
2023/07/24 01:07:12;;;;;;;3.35;3.25;;;20.40;99.90;;;20.79;87.62;100249.53;5054987;28;20072;-80
2023/07/24 01:09:40;;;;;;;3.03;2.92;;;20.40;99.90;;;20.76;87.38;100248.84;5055234;28;20053;-80
2023/07/24 01:12:20;;;;;;;2.53;2.42;;;20.40;99.90;;;20.80;87.24;100245.06;5054801;28;20041;-80
2023/07/24 01:14:57;;;;;;;2.30;2.20;;;20.40;99.90;;;20.68;87.15;100228.66;5067824;28;20095;-81
2023/07/24 01:17:28;;;;;;;2.78;2.67;;;20.40;99.90;;;20.75;87.25;100225.63;5062253;28;20151;-81
2023/07/24 01:20:02;;;;;;;4.57;4.32;;;20.40;99.90;;;20.84;86.90;100227.78;5055098;28;20053;-80
2023/07/24 01:22:41;;;;;;;2.75;2.65;;;20.50;99.90;;;20.71;86.81;100222.25;5051455;28;20057;-80
2023/07/24 01:25:19;;;;;;;2.67;2.58;;;20.40;99.90;;;20.72;86.85;100228.47;5053578;28;20041;-80
2023/07/24 01:27:49;;;;;;;3.05;2.90;;;20.40;99.90;;;20.66;86.81;100213.56;5051007;28;20137;-80
2023/07/24 01:30:21;;;;;;;3.37;3.07;;;20.30;99.90;;;20.54;86.45;100199.00;5053653;28;20088;-80
2023/07/24 01:32:50;;;;;;;3.00;2.90;;;20.30;99.90;;;20.64;86.43;100223.53;5054340;28;20656;-80
2023/07/24 01:35:19;;;;;;;2.75;2.65;;;20.30;99.90;;;20.61;86.50;100211.13;5061856;28;20040;-80
2023/07/24 01:37:48;;;;;;;2.50;2.40;;;20.20;99.90;;;20.68;86.37;100207.16;5054620;28;20398;-80
2023/07/24 01:40:17;;;;;;;2.83;2.72;;;20.30;99.90;;;20.66;86.00;100218.94;5054689;28;20399;-80
2023/07/24 01:42:45;;;;;;;4.30;4.00;;;20.20;99.90;;;20.61;85.81;100213.81;5053534;28;20053;-80
2023/07/24 01:45:15;;;;;;;2.72;2.63;;;20.20;99.90;;;20.60;85.75;100209.41;5054546;28;20076;-80
2023/07/24 01:47:43;;;;;;;3.27;3.17;;;20.20;99.90;;;20.66;85.48;100216.25;5049674;28;20053;-79
2023/07/24 01:50:12;;;;;;;2.50;2.40;;;20.30;99.90;;;20.68;85.06;100217.03;5054193;28;20075;-80
2023/07/24 01:52:40;;;;;;;3.95;3.75;;;20.30;99.90;;;20.59;85.09;100212.19;5054353;28;20045;-81
2023/07/24 01:55:09;;;;;;;3.05;2.95;;;20.20;99.90;;;20.65;85.02;100212.69;5054664;28;20049;-79
2023/07/24 01:57:37;;;;;;;2.83;2.72;;;20.30;99.90;;;20.60;84.90;100212.09;5052991;28;20095;-80
2023/07/24 02:00:08;;;;;;;2.65;2.55;;;20.30;99.90;;;20.61;84.91;100200.38;5054310;28;20057;-80
2023/07/24 02:02:37;;;;;;;2.92;2.83;;;20.20;99.90;;;20.68;84.80;100195.53;5053952;28;20053;-80
2023/07/24 02:05:07;;;;;;;3.15;2.85;;;20.30;99.90;;;20.68;84.64;100188.34;5053969;28;20504;-80
2023/07/24 02:07:35;;;;;;;3.35;3.05;;;20.30;99.90;;;20.61;84.40;100161.91;5052804;28;20059;-80
2023/07/24 02:10:04;;;;;;;2.83;2.72;;;20.40;99.90;;;20.13;84.03;100087.56;5048831;28;20140;-80
2023/07/24 02:12:32;;;;;;;4.90;2.95;;;20.40;99.90;;;20.71;84.07;100184.63;5052688;28;20049;-81
2023/07/24 02:15:01;;;;;;;2.70;2.60;;;20.40;99.90;;;20.63;84.15;100170.75;5050457;28;20042;-80
2023/07/24 02:17:29;;;;;;;3.22;3.03;;;20.30;99.90;;;20.70;84.20;100188.25;5053963;28;20435;-79
2023/07/24 02:19:59;;;;;;;2.88;2.78;;;20.30;99.90;;;20.68;84.11;100188.34;5054006;28;20053;-80
2023/07/24 02:22:28;;;;;;;3.25;3.15;;;20.30;99.90;;;20.69;83.95;100190.06;5053904;28;20449;-80
2023/07/24 02:24:57;;;;;;;3.20;3.10;;;20.30;99.90;;;20.64;84.05;100189.47;5053508;28;20500;-81
2023/07/24 02:27:28;;;;;;;3.10;2.90;;;20.30;99.90;;;20.68;83.90;100169.53;5052481;28;20045;-80
2023/07/24 02:29:58;;;;;;;3.22;3.03;;;20.30;99.90;;;20.55;84.08;100173.88;5053785;28;20045;-80
2023/07/24 02:32:27;;;;;;;3.45;3.25;;;20.20;99.90;;;20.61;84.28;100178.88;5053395;28;20037;-80
2023/07/24 02:34:55;;;;;;;2.72;2.63;;;20.20;99.90;;;20.70;84.09;100166.75;5053152;28;20405;-81
2023/07/24 02:37:25;;;;;;;2.78;2.67;;;20.30;99.90;;;20.72;83.92;100172.91;5053363;28;20052;-80
2023/07/24 02:39:53;;;;;;;3.10;3.00;;;20.30;99.90;;;20.78;83.80;100160.94;5067555;28;20049;-81
2023/07/24 02:42:22;;;;;;;3.28;3.05;;;20.40;99.90;;;20.78;83.63;100151.03;5053459;28;20649;-79
2023/07/24 02:44:53;;;;;;;3.22;3.13;;;20.40;99.90;;;20.75;83.53;100158.44;5052172;28;20060;-80
2023/07/24 02:47:22;;;;;;;2.53;2.42;;;20.40;99.90;;;20.63;83.58;100127.75;5053491;28;20108;-80
2023/07/24 02:49:50;;;;;;;2.65;2.55;;;20.40;99.90;;;20.78;83.81;100164.50;5049368;28;20041;-80
2023/07/24 02:52:19;;;;;;;2.67;2.58;;;20.40;99.90;;;20.82;83.73;100144.53;5053213;28;20071;-80
2023/07/24 02:54:49;;;;;;;2.67;2.58;;;20.40;99.90;;;20.89;83.77;100150.41;5051953;28;20433;-79
2023/07/24 02:57:17;;;;;;;2.78;2.67;;;20.50;99.90;;;20.86;83.93;100150.59;5053000;28;20579;-79
2023/07/24 02:59:46;;;;;;;3.72;3.53;;;20.40;99.90;;;20.87;84.29;100166.63;5053412;28;20068;-81
2023/07/24 03:02:15;;;;;;;2.65;2.55;;;20.50;99.90;;;20.87;84.51;100158.56;5053356;28;20120;-80
2023/07/24 03:04:43;;;;;;;3.50;3.35;;;20.40;99.90;;;20.88;84.73;100151.38;5053120;28;20124;-79
2023/07/24 03:07:13;;;;;;;3.33;3.20;;;20.50;99.90;;;20.87;84.86;100153.19;5051467;28;20041;-80
2023/07/24 03:09:41;;;;;;;2.58;2.47;;;20.50;99.90;;;20.91;84.76;100168.19;5052788;28;20548;-80
2023/07/24 03:12:11;;;;;;;3.40;3.20;;;20.50;99.90;;;20.85;85.05;100165.84;5052893;28;20056;-79
2023/07/24 03:14:39;;;;;;;2.60;2.50;;;20.50;99.90;;;20.85;85.11;100160.47;5068360;28;20131;-79
2023/07/24 03:17:08;;;;;;;3.42;3.28;;;20.50;99.90;;;20.78;84.59;100164.50;5060298;28;20110;-80
2023/07/24 03:19:36;;;;;;;2.80;2.70;;;20.40;99.90;;;20.75;84.77;100158.44;5049334;28;20056;-80
2023/07/24 03:22:05;;;;;;;5.53;3.58;;;20.40;99.90;;;20.70;84.62;100166.75;5052903;28;20048;-79
2023/07/24 03:24:34;;;;;;;2.80;2.70;;;20.30;99.90;;;20.61;84.55;100133.19;5052767;28;20068;-80
2023/07/24 03:27:03;;;;;;;2.58;2.47;;;20.30;99.90;;;20.74;84.33;100167.44;5067545;28;20052;-80
2023/07/24 03:29:33;;;;;;;2.67;2.58;;;20.40;99.90;;;20.12;84.09;100050.06;5052504;28;20055;-80
2023/07/24 03:32:01;;;;;;;4.05;3.85;;;20.30;99.90;;;20.72;84.13;100159.47;5052713;28;20099;-80
2023/07/24 03:34:30;;;;;;;3.10;3.00;;;20.30;99.90;;;20.71;84.26;100162.25;5052758;28;20045;-80
2023/07/24 03:36:58;;;;;;;2.92;2.80;;;20.30;99.90;;;20.69;84.43;100160.50;5052711;28;20103;-80
2023/07/24 03:39:26;;;;;;;2.97;2.88;;;20.30;99.90;;;20.77;84.29;100159.22;5052668;28;20490;-80
2023/07/24 03:41:55;;;;;;;2.67;2.58;;;20.30;99.90;;;20.69;84.06;100130.09;5052693;28;20099;-80
2023/07/24 03:44:23;;;;;;;2.85;2.75;;;20.40;99.90;;;20.72;84.01;100147.84;5052676;28;20103;-79
2023/07/24 03:46:53;;;;;;;2.70;2.60;;;20.40;99.90;;;20.63;84.13;100146.56;5052541;28;20052;-80
2023/07/24 03:49:22;;;;;;;2.47;2.38;;;20.30;99.90;;;20.57;84.08;100146.91;5056374;28;20508;-80
2023/07/24 03:51:50;;;;;;;3.65;3.45;;;20.20;99.90;;;20.48;84.24;100132.16;5056349;28;20120;-80
2023/07/24 03:54:19;;;;;;;2.75;2.65;;;20.10;99.90;;;20.50;84.46;100143.69;5056657;28;20049;-80
2023/07/24 03:56:47;;;;;;;3.35;3.15;;;20.10;99.90;;;20.56;84.39;100142.47;5056285;28;20045;-80
2023/07/24 03:59:15;;;;;;;3.42;3.22;;;20.10;99.90;;;20.57;84.25;100139.72;5055273;28;20490;-80
2023/07/24 04:01:43;;;;;;;2.95;2.85;;;20.20;99.90;;;20.57;84.31;100142.41;5052655;28;20040;-79
2023/07/24 04:04:13;;;;;;;2.50;2.40;;;20.20;99.90;;;20.57;84.34;100145.09;5056185;28;20041;-80
2023/07/24 04:06:42;;;;;;;3.60;3.37;;;20.20;99.90;;;20.60;84.03;100155.66;5056510;28;20041;-80
2023/07/24 04:09:14;;;;;;;2.95;2.85;;;20.20;99.90;;;20.56;84.12;100151.41;5056141;28;20311;-80
2023/07/24 04:11:43;;;;;;;4.38;4.03;;;20.20;99.90;;;20.32;84.19;100115.19;5056190;28;20487;-80
2023/07/24 04:14:12;;;;;;;2.85;2.75;;;20.20;99.90;;;20.53;84.39;100154.28;5056163;28;20405;-80
2023/07/24 04:16:41;;;;;;;2.75;2.65;;;20.20;99.90;;;20.54;84.44;100158.69;5071543;28;20045;-80
2023/07/24 04:19:09;;;;;;;2.83;2.72;;;20.20;99.90;;;20.56;84.36;100154.09;5068222;28;20048;-80
2023/07/24 04:21:39;;;;;;;3.13;3.03;;;20.20;99.90;;;20.60;84.49;100155.66;5051950;28;20398;-80
2023/07/24 04:24:07;;;;;;;2.97;2.87;;;20.20;99.90;;;20.59;84.46;100153.94;5052757;28;20041;-80
2023/07/24 04:26:36;;;;;;;2.97;2.88;;;20.20;99.90;;;20.55;84.75;100160.44;5055786;28;20371;-80
2023/07/24 04:29:05;;;;;;;2.75;2.60;;;20.20;99.90;;;20.55;84.98;100152.38;5056293;28;20371;-80
2023/07/24 04:31:34;;;;;;;2.50;2.40;;;20.20;99.90;;;20.56;85.24;100154.09;5056210;28;20056;-80
2023/07/24 04:34:02;;;;;;;2.80;2.70;;;20.20;99.90;;;20.60;85.29;100155.66;5055563;28;20452;-80
2023/07/24 04:36:30;;;;;;;2.90;2.80;;;20.20;99.90;;;20.54;85.44;100156.00;5055399;28;20390;-80
2023/07/24 04:39:01;;;;;;;2.90;2.80;;;20.20;99.90;;;20.40;85.66;100163.97;5055605;28;20051;-80
2023/07/24 04:41:29;;;;;;;2.30;2.20;;;20.10;99.90;;;20.51;86.08;100152.63;5056069;28;20053;-80
2023/07/24 04:43:57;;;;;;;2.50;2.40;;;20.10;99.90;;;20.34;86.28;100131.22;5051800;28;20279;-80
2023/07/24 04:46:26;;;;;;;3.28;3.17;;;20.10;99.90;;;20.48;86.15;100163.53;5052017;28;20425;-80
2023/07/24 04:48:54;;;;;;;3.05;2.95;;;20.10;99.90;;;20.43;86.33;100150.38;5055896;28;20103;-78
2023/07/24 04:51:23;;;;;;;2.72;2.63;;;20.00;99.90;;;20.41;86.52;100154.97;5068675;28;20053;-80
2023/07/24 04:53:51;;;;;;;3.42;3.33;;;20.00;99.90;;;20.40;86.56;100149.69;5055216;28;20441;-79
2023/07/24 04:56:21;;;;;;;2.80;2.70;;;20.00;99.90;;;20.22;86.48;100129.22;5054174;28;20053;-80
2023/07/24 04:58:49;;;;;;;2.40;2.30;;;20.00;99.90;;;20.41;86.48;100152.28;5055066;28;20045;-80
2023/07/24 05:01:17;;;;;;;2.72;2.63;;;20.00;99.90;;;20.36;86.53;100154.34;5055157;28;20057;-80
2023/07/24 05:03:46;;;;;;;2.42;2.33;;;20.00;99.90;;;20.40;86.63;100158.59;5055038;28;20049;-80
2023/07/24 05:06:14;;;;;;;2.55;2.45;;;20.00;99.90;;;20.41;86.57;100148.72;5055051;28;20053;-80
2023/07/24 05:08:42;;;;;;;2.95;2.85;;;20.10;99.90;;;20.47;86.36;100151.94;5055005;28;20123;-80
2023/07/24 05:11:11;;;;;;;2.40;2.30;;;20.10;99.90;;;20.45;86.18;100147.59;5055292;28;20048;-80
2023/07/24 05:13:40;;;;;;;2.60;2.50;;;20.10;99.90;;;20.27;85.98;100111.88;5054776;28;20041;-80
2023/07/24 05:16:09;;;;;;;2.63;2.53;;;20.00;99.90;;;20.38;85.96;100144.38;5055136;28;20090;-80
2023/07/24 05:18:37;;;;;;;3.08;2.75;;;20.00;99.90;;;20.36;85.70;100145.44;5055121;28;20315;-76
2023/07/24 05:21:08;;;;;;;12.30;7.53;;;20.00;99.90;;;20.39;85.34;100146.13;5054862;28;20071;-73
2023/07/24 05:23:36;;;;;;;2.60;2.50;;;20.00;99.90;;;20.44;85.31;100146.72;5054704;28;20076;-74
2023/07/24 05:26:05;;;;;;;2.92;2.83;;;20.00;99.90;;;20.43;85.12;100150.38;5054637;28;20041;-72
2023/07/24 05:28:34;;;;;;;2.42;2.33;;;20.10;99.90;;;20.51;85.03;100145.44;5054867;28;20049;-73
2023/07/24 05:31:04;;;;;;;2.60;2.50;;;20.10;99.90;;;20.57;84.63;100147.78;5054584;28;20053;-74
2023/07/24 05:33:33;;;;;;;;;;;20.20;99.90;;;20.52;84.27;100136.41;5051330;28;20409;-75
2023/07/24 05:36:02;;;;;;;2.65;2.55;;;20.20;99.90;;;20.71;84.41;100151.50;5054367;28;19927;-72
2023/07/24 05:38:31;;;;;;;3.03;2.83;;;20.30;99.90;;;20.60;84.17;100131.47;5054301;28;20072;-73
2023/07/24 05:41:01;;;;;;;2.97;2.88;;;20.40;99.90;;;20.77;84.12;100151.16;5054410;28;20055;-74
2023/07/24 05:43:32;;;;;;;2.58;2.47;;;20.40;99.90;;;20.81;83.66;100158.09;5054651;28;20055;-74
2023/07/24 05:46:00;;;;;;;3.22;3.03;;;20.40;99.90;;;20.87;83.55;100155.00;5054363;28;20493;-74
2023/07/24 05:48:30;;;;;;;2.63;2.53;;;20.50;99.90;;;20.80;83.11;100156.31;5054204;28;20132;-74
2023/07/24 05:50:58;;;;;;;3.10;3.00;;;20.40;99.90;;;20.76;83.06;100160.16;5054134;28;20080;-74
2023/07/24 05:53:27;;;;;;;2.50;2.40;;;20.40;99.90;;;20.78;83.20;100150.16;5050284;28;20703;-74
2023/07/24 05:56:00;;;;;;;2.92;2.83;;;20.40;99.90;;;20.80;83.18;100154.53;5054073;28;20111;-75
2023/07/24 05:58:29;;;;;;;3.40;3.20;;;20.40;99.90;;;20.74;82.95;100156.69;5053998;28;20049;-75
2023/07/24 06:00:57;;;;;;;2.97;2.88;;;20.40;99.90;;;20.72;83.00;100158.59;5053943;28;20040;-74
2023/07/24 06:03:26;;;;;;;2.58;2.47;;;20.40;99.90;;;20.79;83.11;100157.31;5054252;28;20455;-74
2023/07/24 06:05:57;;;;;;;3.17;3.08;;;20.40;99.90;;;20.81;82.72;100152.69;5053929;28;20041;-74
2023/07/24 06:08:25;;;;;;;;;;;20.40;99.90;;;20.79;82.81;100151.94;5053235;28;20055;-75
2023/07/24 06:10:54;;;;;;;5.07;4.05;;;20.40;99.90;;;20.82;83.04;100163.38;5053059;28;19927;-74
2023/07/24 06:13:22;;;;;;;3.17;2.92;;;20.50;99.90;;;20.24;82.97;100050.28;5050524;28;20061;-74
2023/07/24 06:15:52;;;;;;;2.65;2.55;;;20.40;99.90;;;20.90;83.29;100165.59;5054202;28;20429;-74
2023/07/24 06:18:21;;;;;;;;;;;20.50;99.90;;;20.82;83.44;100170.56;5054109;28;20049;-75
2023/07/24 06:20:54;;;;;;;2.90;2.80;;;20.40;99.90;;;20.84;83.60;100176.72;5053456;28;19970;-74
2023/07/24 06:23:23;;;;;;;3.53;3.22;;;20.40;99.90;;;20.81;83.60;100169.69;5054075;28;20063;-74
2023/07/24 06:25:52;;;;;;;2.67;2.57;;;20.40;99.90;;;20.84;83.55;100179.41;5052301;28;20498;-74
2023/07/24 06:28:21;;;;;;;3.65;3.45;;;20.40;99.90;;;20.87;83.90;100182.78;5053976;28;20295;-75
2023/07/24 06:30:53;;;;;;;3.40;3.25;;;20.50;99.90;;;20.83;84.11;100183.06;5049604;28;20490;-74
2023/07/24 06:33:22;;;;;;;2.85;2.75;;;20.40;99.90;;;20.80;84.07;100183.22;5052216;28;20049;-74
2023/07/24 06:35:51;;;;;;;4.15;3.95;;;20.40;99.90;;;20.79;84.08;100176.13;5050390;28;20041;-74
2023/07/24 06:38:21;;;;;;;3.47;3.28;;;20.40;99.90;;;20.87;83.93;100179.22;5053602;28;20079;-74
2023/07/24 06:40:51;;;;;;;3.47;3.35;;;20.50;99.90;;;20.94;84.11;100181.47;5053277;28;20053;-74
2023/07/24 06:43:19;;;;;;;3.03;2.92;;;20.60;99.90;;;21.09;83.94;100185.13;5053280;28;20083;-74
2023/07/24 06:45:48;;;;;;;2.83;2.72;;;20.70;99.90;;;21.09;83.73;100182.44;5052135;28;20076;-74
2023/07/24 06:48:16;;;;;;;2.70;2.60;;;20.80;99.90;;;21.14;83.58;100186.59;5053136;28;20080;-74
2023/07/24 06:50:44;;;;;;;2.88;2.78;;;20.80;99.90;;;21.39;84.01;100186.88;5049643;28;20049;-74
2023/07/24 06:53:13;;;;;;;3.08;2.97;;;21.00;99.90;;;21.48;83.28;100188.16;5052973;28;20103;-75
2023/07/24 06:55:42;;;;;;;2.60;2.50;;;21.10;99.90;;;21.53;82.73;100188.72;5053119;28;20074;-75
2023/07/24 06:58:12;;;;;;;2.42;2.33;;;21.20;99.90;;;21.65;82.02;100188.00;5052945;28;20095;-74
2023/07/24 07:00:40;;;;;;;2.70;2.60;;;21.30;99.90;;;21.67;80.93;100190.59;5052876;28;20041;-74
2023/07/24 07:03:09;;;;;;;2.45;2.35;;;21.30;99.90;;;21.75;80.90;100181.09;5051881;28;20048;-74
2023/07/24 07:05:37;;;;;;;2.67;2.58;;;21.30;99.90;;;21.72;80.39;100178.56;5051231;28;20063;-74
2023/07/24 07:08:06;;;;;;;2.72;2.63;;;21.30;99.90;;;21.74;80.25;100173.97;5052773;28;20080;-74
2023/07/24 07:10:34;;;;;;;2.95;2.85;;;21.40;99.90;;;21.78;80.27;100180.03;5052978;28;20045;-74
2023/07/24 07:13:02;;;;;;;2.28;2.17;;;21.40;99.90;;;21.82;80.75;100176.22;5051710;28;20037;-74
2023/07/24 07:15:32;;;;;;;4.25;3.95;;;21.40;99.90;;;21.99;80.70;100179.59;5047889;28;20040;-74
2023/07/24 07:18:01;;;;;;;2.90;2.80;;;21.60;99.90;;;22.02;79.60;100171.34;5052859;28;20391;-74
2023/07/24 07:20:29;;;;;;;2.80;2.70;;;21.70;99.90;;;22.13;79.24;100181.44;5052567;28;20041;-73
2023/07/24 07:22:57;;;;;;;2.35;2.25;;;21.70;99.90;;;22.16;78.99;100176.72;5051906;28;20041;-74
2023/07/24 07:25:28;;;;;;;2.85;2.75;;;21.80;99.90;;;22.34;78.99;100172.88;5052526;28;20477;-74
2023/07/24 07:27:56;;;;;;;4.53;3.70;;;21.90;99.90;;;22.45;77.83;100173.03;5052610;28;20037;-74
2023/07/24 07:30:25;;;;;;;2.25;2.15;;;22.10;99.90;;;22.54;77.31;100170.72;5052857;28;20127;-75
2023/07/24 07:32:55;;;;;;;2.60;2.50;;;22.20;99.90;;;22.66;75.46;100161.88;5052482;28;20045;-74
2023/07/24 07:35:23;;;;;;;2.45;2.35;;;22.30;99.90;;;22.82;75.49;100166.16;5048394;28;20056;-75
2023/07/24 07:37:52;;;;;;;2.25;2.15;;;22.40;99.90;;;22.91;75.46;100156.59;5047536;28;20544;-75
2023/07/24 07:40:20;;;;;;;2.20;2.10;;;22.50;99.90;;;22.87;74.13;100163.16;5052415;28;20469;-75
2023/07/24 07:42:48;;;;;;;2.50;2.40;;;22.50;99.90;;;22.80;73.03;100157.28;5065821;28;20057;-74
2023/07/24 07:45:17;;;;;;;2.45;2.35;;;22.40;99.90;;;22.87;72.95;100161.34;5052580;28;20071;-74
2023/07/24 07:47:46;;;;;;;2.90;2.80;;;22.50;99.90;;;22.63;73.15;100145.91;5052287;28;20073;-74
2023/07/24 07:50:16;;;;;;;2.45;2.35;;;22.40;99.90;;;22.66;73.53;100161.88;5052294;28;20079;-75
2023/07/24 07:52:44;;;;;;;3.03;2.90;;;22.30;99.90;;;22.53;73.73;100166.31;5052866;28;20110;-74
2023/07/24 07:55:13;;;;;;;3.00;2.90;;;22.20;99.90;;;22.44;73.57;100165.06;5052592;28;20076;-75
2023/07/24 07:57:42;;;;;;;2.33;2.22;;;22.00;99.90;;;22.54;74.42;100174.28;5052199;28;20490;-75
2023/07/24 08:00:11;;;;;;;2.40;2.30;;;22.10;99.90;;;22.54;74.40;100165.31;5048601;28;20041;-75
2023/07/24 08:02:40;;;;;;;2.45;2.35;;;22.20;99.90;;;22.43;74.33;100169.56;5052159;28;20123;-74
2023/07/24 08:05:10;;;;;;;2.20;2.10;;;22.10;99.90;;;22.45;74.53;100173.03;5052172;28;20060;-75
2023/07/24 08:07:49;;;;;;;2.58;2.47;;;22.10;99.90;;;22.39;74.70;100168.06;5051095;28;20056;-82
2023/07/24 08:10:19;;;;;;;2.75;2.65;;;22.00;99.90;;;22.29;74.82;100157.97;5052379;28;20120;-81
2023/07/24 08:12:48;;;;;;;2.20;2.10;;;21.90;99.90;;;22.17;75.41;100162.31;5048314;28;20048;-81
2023/07/24 08:15:17;;;;;;;3.03;2.92;;;21.80;99.90;;;22.18;75.80;100160.47;5051993;28;20037;-81
2023/07/24 08:17:45;;;;;;;2.67;2.58;;;21.80;99.90;;;22.15;76.35;100169.63;5052011;28;20090;-79
2023/07/24 08:20:14;;;;;;;2.60;2.50;;;21.80;99.90;;;22.28;77.09;100161.59;5052020;28;20459;-78
2023/07/24 08:22:43;;;;;;;2.95;2.85;;;21.90;99.90;;;22.34;76.96;100167.47;5051990;28;20095;-80
2023/07/24 08:25:13;;;;;;;2.60;2.50;;;21.90;99.90;;;22.33;75.97;100168.47;5052194;28;20068;-79
2023/07/24 08:27:41;;;;;;;2.23;2.13;;;22.00;99.90;;;22.30;75.36;100170.47;5052199;28;20145;-79
2023/07/24 08:30:31;;;;;;;2.70;2.60;;;22.00;99.90;;;22.26;74.71;100161.72;5049921;28;20709;-79
2023/07/24 08:33:00;;;;;;;2.40;2.30;;;21.90;99.90;;;22.35;75.70;100163.84;5050968;28;20045;-71
2023/07/24 08:35:29;;;;;;;2.30;2.20;;;22.00;99.90;;;22.45;75.33;100162.25;5053806;28;20045;-68
2023/07/24 08:37:57;;;;;;;2.50;2.40;;;22.00;99.90;;;22.49;74.99;100162.06;5071063;28;20060;-75
2023/07/24 08:40:27;;;;;;;2.70;2.60;;;22.10;99.90;;;22.55;74.67;100172.47;5054585;28;20445;-75
2023/07/24 08:42:56;;;;;;;21.88;3.20;;;22.20;99.90;;;22.55;74.43;100162.53;5052130;28;20044;-69
2023/07/24 08:45:25;;;;;;;2.50;2.40;;;22.20;99.90;;;22.67;74.63;100175.25;5055462;28;20052;-68
2023/07/24 08:47:54;;;;;;;2.90;2.80;;;22.30;99.90;;;22.64;74.22;100163.81;5055326;28;20106;-67
2023/07/24 08:50:23;;;;;;;2.50;2.40;;;22.30;99.90;;;22.58;74.46;100159.69;5055794;28;20045;-67
2023/07/24 08:52:52;;;;;;;2.53;2.42;;;22.20;99.90;;;22.50;75.24;100164.66;5053085;28;20049;-67
2023/07/24 08:55:21;;;;;;;2.97;2.88;;;22.10;99.90;;;22.44;74.70;100165.94;5055190;28;20053;-67
2023/07/24 08:57:51;;;;;;;2.67;2.57;;;22.00;99.90;;;22.45;74.80;100156.88;5055222;28;20047;-66
2023/07/24 09:00:20;;;;;;;2.70;2.60;;;22.00;99.90;;;22.60;75.00;100148.78;5055090;28;20067;-66
2023/07/24 09:02:48;;;;;;;2.75;2.65;;;22.20;99.90;;;22.47;73.19;100118.19;5055397;28;20049;-65
2023/07/24 09:05:17;;;;;;;2.72;2.63;;;22.30;99.90;;;22.76;72.92;100154.91;5055608;28;20055;-65
2023/07/24 09:07:46;;;;;;;2.60;2.50;;;22.40;99.90;;;22.70;72.47;100129.22;5055309;28;20434;-66
2023/07/24 09:10:16;;;;;;;2.92;2.83;;;22.40;99.90;;;22.82;72.35;100143.72;5055435;28;20053;-64
2023/07/24 09:12:45;;;;;;;3.42;3.05;;;22.40;99.90;;;22.85;72.69;100143.50;5055359;28;20041;-69
2023/07/24 09:15:15;;;;;;;3.00;2.90;;;22.50;99.90;;;22.79;72.74;100133.13;5054798;28;20111;-71
2023/07/24 09:17:51;;;;;;;2.50;2.40;;;22.40;99.90;;;22.90;71.73;100134.16;5054816;28;20045;-76
2023/07/24 09:20:21;;;;;;;3.13;3.00;;;22.50;99.90;;;22.95;71.83;100134.72;5051463;28;20049;-71
2023/07/24 09:22:54;;;;;;;2.80;2.70;;;22.60;99.90;;;23.05;71.44;100125.00;5053720;28;20057;-71
2023/07/24 09:25:43;;;;;;;2.40;2.30;;;22.70;99.90;;;23.16;70.54;100135.09;5051083;28;20103;-72
2023/07/24 09:28:12;;;;;;;2.65;2.55;;;22.80;99.90;;;23.18;70.38;100136.72;5053692;28;20053;-72
2023/07/24 09:30:43;;;;;;;2.65;2.55;;;22.80;99.90;;;22.78;70.96;100061.28;5054562;28;20037;-69
2023/07/24 09:33:12;;;;;;;2.78;2.67;;;22.90;99.90;;;23.31;69.93;100152.97;5054631;28;20107;-79
2023/07/24 09:35:40;;;;;;;2.90;2.80;;;22.90;99.90;;;23.22;69.53;100148.19;5054870;28;20128;-67
2023/07/24 09:38:11;;;;;;;3.35;3.05;;;22.90;99.90;;;23.08;69.38;100159.03;5054350;28;20053;-67
2023/07/24 09:40:42;;;;;;;2.60;2.50;;;22.80;99.90;;;23.11;69.94;100164.25;5053435;28;20103;-66
2023/07/24 09:43:19;;;;;;;2.25;2.15;;;22.70;99.90;;;23.14;70.46;100166.72;5051542;28;20128;-66
2023/07/24 09:46:07;;;;;;;2.40;2.30;;;22.80;99.90;;;23.12;70.75;100130.88;5050275;28;20051;-66
2023/07/24 09:48:37;;;;;;;2.97;2.88;;;22.90;99.90;;;23.21;71.16;100144.59;5054275;28;20045;-64
2023/07/24 09:51:13;;;;;;;2.50;2.40;;;22.80;99.90;;;23.25;71.26;100148.84;5054248;28;20500;-67
2023/07/24 09:53:49;;;;;;;2.53;2.42;;;22.90;99.90;;;23.22;70.76;100153.56;5054212;28;20072;-75
2023/07/24 09:56:19;;;;;;;2.50;2.40;;;22.80;99.90;;;23.09;70.50;100123.00;5050681;28;20045;-65
2023/07/24 09:59:01;;;;;;;2.58;2.47;;;22.80;99.90;;;23.02;70.38;100122.53;5054509;28;20052;-66
2023/07/24 10:01:32;;;;;;;2.60;2.50;;;22.80;99.90;;;23.30;70.90;100154.81;5053918;28;20493;-67
2023/07/24 10:04:02;;;;;;;3.60;3.42;;;22.90;99.90;;;23.46;70.49;100149.22;5053750;28;20509;-67
2023/07/24 10:06:31;;;;;;;2.72;2.63;;;23.10;99.90;;;23.53;69.40;100128.94;5053983;28;20146;-66
2023/07/24 10:09:01;;;;;;;2.55;2.45;;;23.20;99.90;;;23.76;69.08;100146.25;5054132;28;20045;-66
2023/07/24 10:11:30;;;;;;;2.38;2.28;;;23.50;99.90;;;23.82;68.28;100141.28;5053833;28;20037;-65
2023/07/24 10:14:00;;;;;;;2.50;2.40;;;23.50;99.90;;;23.99;67.52;100145.47;5053814;28;20044;-67
2023/07/24 10:16:29;;;;;;;2.63;2.53;;;23.70;99.90;;;24.28;67.84;100154.22;5053842;28;20073;-67
2023/07/24 10:18:58;;;;;;;2.47;2.38;;;24.00;99.90;;;24.37;65.85;100150.88;5061274;28;20041;-67
2023/07/24 10:21:28;;;;;;;2.65;2.55;;;24.10;99.90;;;24.39;64.97;100146.22;5053978;28;20047;-67